x

Ilm2 - 5 Miles Se Of Wrightsville Beach, Nc (41038) Weather Station

3:08pm - Mon 24th Jul 2017 All times are EDT. -4 hours from GMT.

  • Wind
    11mph, 20mph gusts
  • Sea Temp 81°f
  • Air Temp 82°f
  • Sea Pressure 1013.5mb
  • Ilm2 - 5 Miles Se Of Wrightsville Beach, Nc
  • Ilm2 - 5 Miles Se Of Wrightsville Beach, Nc

More Historic Weather Station data

Upgrade to MSW Pro to gain access to the past 30 days of data for over 8000 Wavebouys and Weather Stations around the globe.

Join Pro

Comparision Forecast

View Surf forecast
   
Mon 07/24 3:08pm 11 20 mph 1013.5mb 81f 82f
2:08pm 11 22 mph 1013.5mb 81f 82f
1:08pm 13 20 mph 1013.8mb 81f 82f
12:08pm 11 20 mph 1014.2mb 81f 82f
11:08am 13 25 mph 1014.2mb 81f 81f
10:08am 11 18 mph 1013.7mb 81f 82f
9:08am 13 18 mph 1013.5mb 80f 81f
8:08am 13 18 mph 1013.7mb 80f 80f
7:08am 13 20 mph 1013.4mb 80f 80f
6:08am 16 25 mph 1012.8mb 80f 80f
5:08am 18 25 mph 1012.2mb 80f 81f
4:08am 18 27 mph 1012.2mb 80f 81f
3:08am 16 27 mph 1011.5mb 80f 81f
2:08am 16 27 mph 1011.9mb 80f 81f
1:08am 22 31 mph 1011.9mb 80f 81f
12:08am 16 22 mph 1012.8mb 80f 81f
Sun 07/23 11:08pm 13 25 mph 1012.7mb 80f 81f
10:08pm 13 25 mph 1013.1mb 80f 81f
9:08pm 16 25 mph 1012.5mb 80f 81f
8:08pm 18 27 mph 1012.3mb 80f 82f
7:08pm 16 27 mph 1011.8mb 80f 82f
6:08pm 16 22 mph 1010.9mb 80f 82f
5:08pm 16 25 mph 1011.7mb 80f 82f
4:08pm 13 25 mph 1012.1mb 80f 82f
3:08pm 13 27 mph 1012.6mb 80f 82f
2:08pm 11 20 mph 1012.7mb 80f 81f
1:08pm 11 18 mph 1012.9mb 79f 81f
12:08pm 11 22 mph 1013mb 79f 81f
11:08am 9 16 mph 1013.5mb 79f 81f
10:08am 11 20 mph 1013.7mb 79f 81f
9:08am 13 20 mph 1013.8mb 79f 81f
8:08am 13 18 mph 1013.6mb 79f 81f
7:08am 13 20 mph 1013.3mb 79f 81f
6:08am 13 20 mph 1013.3mb 78f 80f
5:08am 16 20 mph 1012.9mb 78f 80f
4:08am 11 18 mph 1012.7mb 78f 80f
3:08am 13 22 mph 1012.8mb 78f 80f
2:08am 11 18 mph 1013.2mb 78f 80f
1:08am 11 20 mph 1013.7mb 78f 80f
12:08am 9 18 mph 1013.6mb 79f 80f
Sat 07/22 11:08pm 11 18 mph 1013.9mb 79f 81f
10:08pm 9 18 mph 1014.2mb 79f 81f
9:08pm 11 18 mph 1013.9mb 79f 81f
8:08pm 11 18 mph 1013.8mb 79f 81f
7:08pm 11 18 mph 1013.4mb 80f 81f
6:08pm 9 16 mph 1013.1mb 80f 81f
5:08pm 11 20 mph 1013.6mb 80f 81f
4:08pm 11 18 mph 1014mb 79f 81f
3:08pm 13 20 mph 1015mb 79f 81f
2:08pm 11 16 mph 1015.8mb 80f 81f
1:08pm 11 18 mph 1016.3mb 80f 81f
12:08pm 9 18 mph 1016.8mb 80f 82f
11:08am 11 16 mph 1017.3mb 80f 81f
10:08am 11 16 mph 1017mb 80f 80f
9:08am 9 11 mph 1016.8mb 80f 80f
8:08am 9 11 mph 1016.5mb 80f 80f
7:08am 7 11 mph 1015.8mb 80f 80f
6:08am 9 13 mph 1015.5mb 80f 80f
5:08am 11 16 mph 1015.3mb 80f 80f
4:08am 11 16 mph 1015.4mb 80f 80f
3:08am 9 13 mph 1015.4mb 80f 80f
2:08am 9 13 mph 1015.8mb 80f 80f
1:08am 9 13 mph 1016.1mb 80f 81f
12:08am 9 16 mph 1016.3mb 81f 81f
Fri 07/21 11:08pm 11 20 mph 1016.5mb 81f 81f
10:08pm 11 18 mph 1016.4mb 81f 81f
9:08pm 9 16 mph 1015.9mb 81f 81f
8:08pm 9 18 mph 1015.7mb 82f 82f
7:08pm 11 18 mph 1015.5mb 82f 82f
6:08pm 11 18 mph 1015.2mb 82f 82f
5:08pm 13 20 mph 1015.3mb 82f 82f
4:08pm 13 20 mph 1015.4mb 82f 82f
3:08pm 13 20 mph 1016.1mb 82f 82f
2:08pm 13 20 mph 1016.6mb 82f 82f
1:08pm 11 16 mph 1017mb 82f 82f
12:08pm 9 16 mph 1017.3mb 82f 82f
11:08am 9 11 mph 1017.4mb 82f 82f
10:08am 7 9 mph 1017.2mb 81f 81f
9:08am 9 11 mph 1017.1mb 81f 80f
8:08am 9 13 mph 1016.8mb 81f 80f
7:08am 11 13 mph 1016.2mb 81f 80f
6:08am 11 13 mph 1015.5mb 81f 79f
5:08am 9 13 mph 1015.3mb 81f 80f
4:08am 7 11 mph 1015.3mb 81f 80f
3:08am 7 11 mph 1015.7mb 81f 81f
2:08am 9 13 mph 1016.2mb 80f 81f
1:08am 9 16 mph 1016.8mb 80f 81f
Thu 07/20 11:08pm 11 18 mph 1017mb 81f 81f
10:08pm 9 16 mph 1016.7mb 81f 82f
9:08pm 11 18 mph 1016.1mb 82f 82f